EDT,Max TemperatureF,Mean TemperatureF,Min TemperatureF,Max Dew PointF,MeanDew PointF,Min DewpointF,Max Humidity, Mean Humidity, Min Humidity, Max Sea Level PressureIn, Mean Sea Level PressureIn, Min Sea Level PressureIn, Max VisibilityMiles, Mean VisibilityMiles, Min VisibilityMiles, Max Wind SpeedMPH, Mean Wind SpeedMPH, Max Gust SpeedMPH,PrecipitationIn, CloudCover, Events, WindDirDegrees
2013-7-1,79,72,64,66,64,63,93,78,62,30.01,29.90,29.80,10,8,1,15,5,22,1.14,7,Rain-Thunderstorm,161
2013-7-2,82,74,65,69,65,63,100,77,54,30.21,30.06,29.95,10,9,2,15,5,21,0.32,6,Rain,157
2013-7-3,75,69,63,70,66,61,100,92,84,30.31,30.21,30.10,10,6,1,22,4,26,3.21,8,Rain,140
2013-7-4,74,69,63,70,65,62,100,97,93,30.29,30.24,30.16,10,7,1,16,4,21,2.09,8,Rain-Thunderstorm,169
2013-7-5,81,74,67,68,66,64,93,76,58,30.31,30.24,30.17,10,9,2,15,5,23,0.36,6,Rain-Thunderstorm,163
2013-7-6,81,74,67,70,67,64,100,79,58,30.29,30.22,30.13,10,8,1,21,5,26,1.20,7,Rain,163
2013-7-7,80,74,68,70,68,66,100,84,67,30.24,30.17,30.09,10,10,4,17,7,23,0.12,6,Rain,178
2013-7-8,85,77,68,70,67,63,100,76,51,30.28,30.19,30.11,10,10,2,13,5,15,T,7,Rain,341
2013-7-9,87,77,67,70,67,61,100,72,44,30.26,30.18,30.07,10,8,1,15,5,18,0.13,5,,346
2013-7-10,83,75,67,70,68,65,100,81,62,30.23,30.09,29.97,10,8,2,15,4,22,0.59,6,Rain-Thunderstorm,318
2013-7-11,80,73,66,70,67,64,100,84,67,30.06,29.99,29.89,10,8,1,15,4,16,T,6,Rain,332
2013-7-12,82,74,66,67,65,61,100,79,58,30.08,29.97,29.90,10,8,1,15,5,23,0.01,5,Rain-Thunderstorm,340
2013-7-13,76,70,63,67,63,60,93,81,68,30.19,30.11,30.02,10,10,10,9,3,14,0.01,7,Rain,152
2013-7-14,74,70,65,70,67,64,100,90,79,30.36,30.25,30.11,10,6,1,15,4,21,1.05,8,Rain,153
2013-7-15,82,74,66,68,66,63,100,77,54,30.40,30.33,30.27,10,8,2,10,3,14,0.01,4,,146
2013-7-16,87,76,65,69,66,64,100,75,50,30.42,30.34,30.25,10,7,0,13,4,16,0.04,4,Fog,340
2013-7-17,87,78,68,72,68,66,100,75,50,30.32,30.26,30.20,10,9,2,21,4,25,0.27,3,Rain-Thunderstorm,346
2013-7-18,86,76,66,70,67,64,100,79,58,30.28,30.19,30.09,10,8,2,13,4,15,T,3,,330
2013-7-19,86,77,67,70,68,65,100,76,51,30.22,30.14,30.01,10,5,0,14,2,17,T,5,Fog-Rain,210
2013-7-20,84,76,68,70,69,66,100,82,63,30.13,30.05,29.96,10,6,0,10,3,15,T,5,Fog-Rain,299
2013-7-21,83,76,68,71,68,66,100,79,58,30.09,30.03,29.96,10,6,1,13,3,16,0.37,6,Rain,320
2013-7-22,81,74,66,72,68,64,100,86,71,30.10,29.96,29.85,10,8,1,17,6,21,0.83,6,Rain,311
2013-7-23,84,75,66,70,66,61,97,72,47,29.96,29.87,29.81,10,10,6,13,6,17,T,3,Rain-Thunderstorm,336
2013-7-24,85,76,67,68,65,61,93,71,48,29.94,29.85,29.79,10,10,10,18,7,23,T,2,,345
2013-7-25,85,75,64,66,62,54,93,64,34,30.05,29.94,29.86,10,9,5,7,6,9,T,3,Thunderstorm,333
2013-7-26,82,71,60,70,64,60,100,79,58,30.17,30.10,30.02,10,6,0,14,4,18,1.11,5,Fog-Rain,179
2013-7-27,80,73,66,70,66,62,100,79,58,30.13,30.02,29.89,10,7,1,12,4,14,0.59,6,Rain-Thunderstorm,159
2013-7-28,82,74,65,67,64,61,100,77,54,30.06,29.99,29.91,10,7,1,16,4,20,0.00,5,,291
2013-7-29,81,72,62,61,59,56,93,69,45,30.21,30.11,30.04,10,10,10,16,7,20,0.00,1,,338
2013-7-30,79,69,58,68,63,57,90,74,58,30.28,30.21,30.16,10,10,8,10,2,14,T,3,,169
2013-7-31,76,71,66,70,66,64,100,87,74,30.26,30.14,29.98,10,8,2,13,3,16,0.25,8,Rain,177